createdAt,value
2022-07-30T00:01:10.268Z,5.57
2022-07-30T00:03:55.388Z,5.40
2022-07-30T00:06:40.776Z,5.53
2022-07-30T00:09:26.344Z,5.90
2022-07-30T00:12:11.681Z,5.80
2022-07-30T00:14:57.071Z,5.78
2022-07-30T00:17:42.515Z,5.35
2022-07-30T00:20:32.327Z,5.80
2022-07-30T00:23:17.689Z,5.90
2022-07-30T00:26:03.147Z,7.18
2022-07-30T00:28:48.506Z,7.38
2022-07-30T00:31:34.075Z,9.90
2022-07-30T00:34:19.303Z,10.00
2022-07-30T00:37:04.809Z,10.27
2022-07-30T00:39:50.130Z,8.60
2022-07-30T00:42:44.356Z,10.60
2022-07-30T00:45:29.606Z,9.63
2022-07-30T00:48:14.991Z,9.75
2022-07-30T00:51:00.200Z,9.52
2022-07-30T00:53:45.349Z,7.82
2022-07-30T00:56:30.543Z,8.32
2022-07-30T00:59:16.141Z,8.35
2022-07-30T01:02:01.748Z,8.68
2022-07-30T01:04:48.040Z,8.45
2022-07-30T01:07:33.400Z,7.90
2022-07-30T01:10:18.589Z,8.55
2022-07-30T01:13:05.334Z,7.68
2022-07-30T01:15:50.787Z,7.25
2022-07-30T01:19:12.784Z,7.13
2022-07-30T01:22:20.234Z,8.43
2022-07-30T01:25:12.250Z,7.50
2022-07-30T01:28:01.708Z,6.82
2022-07-30T01:30:50.011Z,7.15
2022-07-30T01:33:40.466Z,7.07
2022-07-30T01:36:27.105Z,7.32
2022-07-30T01:39:15.100Z,7.30
2022-07-30T01:42:05.190Z,7.95
2022-07-30T01:44:51.105Z,8.18
2022-07-30T01:47:39.851Z,7.53
2022-07-30T01:50:25.619Z,7.10
2022-07-30T01:53:16.767Z,7.30
2022-07-30T01:56:03.294Z,8.00
2022-07-30T01:58:50.744Z,7.35
2022-07-30T02:01:35.870Z,7.50
2022-07-30T02:04:21.440Z,7.07
2022-07-30T02:07:14.780Z,7.07
2022-07-30T02:10:06.178Z,7.32
2022-07-30T02:12:55.296Z,8.40
2022-07-30T02:15:51.681Z,8.25
2022-07-30T02:18:58.556Z,7.35
2022-07-30T02:21:58.064Z,8.13
2022-07-30T02:24:43.746Z,8.48
2022-07-30T02:27:33.357Z,9.05
2022-07-30T02:30:19.278Z,8.70
2022-07-30T02:33:12.821Z,8.68
2022-07-30T02:36:00.287Z,7.93
2022-07-30T02:38:46.439Z,8.60
2022-07-30T02:41:32.799Z,8.98
2022-07-30T02:44:22.255Z,8.50
2022-07-30T02:47:09.040Z,9.18
2022-07-30T02:49:55.646Z,10.02
2022-07-30T02:52:42.299Z,9.50
2022-07-30T02:55:31.075Z,9.27
2022-07-30T02:58:20.183Z,10.38
2022-07-30T03:01:06.335Z,9.60
2022-07-30T03:03:52.228Z,10.00
2022-07-30T03:06:37.719Z,10.35
2022-07-30T03:09:23.121Z,10.68
2022-07-30T03:12:12.194Z,10.18
2022-07-30T03:14:58.053Z,9.60
2022-07-30T03:17:45.113Z,10.10
2022-07-30T03:20:33.035Z,9.02
2022-07-30T03:23:20.321Z,10.02
2022-07-30T03:26:08.615Z,8.77
2022-07-30T03:28:54.743Z,9.93
2022-07-30T03:31:40.946Z,9.40
2022-07-30T03:34:26.971Z,9.18
2022-07-30T03:37:14.353Z,9.88
2022-07-30T03:40:00.434Z,9.90
2022-07-30T03:42:46.174Z,9.00
2022-07-30T03:45:32.554Z,10.43
2022-07-30T03:48:18.221Z,9.77
2022-07-30T03:51:06.090Z,7.97
2022-07-30T03:53:51.875Z,7.93
2022-07-30T03:56:37.639Z,7.95
2022-07-30T03:59:23.109Z,7.72
2022-07-30T04:02:08.433Z,7.82
2022-07-30T04:04:53.909Z,7.90
2022-07-30T04:07:41.303Z,8.65
2022-07-30T04:10:29.983Z,7.25
2022-07-30T04:13:15.824Z,8.55
2022-07-30T04:16:39.240Z,7.95
2022-07-30T04:20:00.500Z,7.38
2022-07-30T04:22:47.111Z,7.90
2022-07-30T04:25:33.847Z,8.00
2022-07-30T04:28:20.221Z,7.38
2022-07-30T04:31:05.732Z,7.25
2022-07-30T04:33:50.981Z,7.80
2022-07-30T04:36:36.286Z,8.10
2022-07-30T04:39:21.685Z,7.60
2022-07-30T04:42:07.125Z,7.55
2022-07-30T04:44:53.308Z,7.05
2022-07-30T04:47:38.628Z,6.70
2022-07-30T04:50:26.227Z,6.47
2022-07-30T04:53:12.080Z,7.85
2022-07-30T04:55:59.057Z,6.35
2022-07-30T04:58:45.544Z,6.68
2022-07-30T05:01:40.473Z,6.43
2022-07-30T05:04:28.004Z,6.90
2022-07-30T05:07:17.900Z,6.55
2022-07-30T05:10:09.044Z,6.50
2022-07-30T05:12:54.178Z,6.72
2022-07-30T05:15:39.697Z,6.65
2022-07-30T05:18:24.939Z,6.40
2022-07-30T05:21:10.323Z,6.68
2022-07-30T05:23:55.762Z,5.90
2022-07-30T05:26:41.435Z,6.22
2022-07-30T05:29:26.927Z,6.95
2022-07-30T05:32:14.614Z,6.03
2022-07-30T05:35:00.100Z,6.45
2022-07-30T05:37:45.231Z,6.35
2022-07-30T05:40:30.595Z,5.53
2022-07-30T05:43:16.051Z,7.10
2022-07-30T05:46:01.530Z,6.75
2022-07-30T05:48:47.015Z,6.50
2022-07-30T05:51:32.255Z,6.15
2022-07-30T05:54:17.859Z,5.68
2022-07-30T05:57:03.647Z,6.70
2022-07-30T05:59:50.373Z,7.28
2022-07-30T06:02:35.539Z,6.43
2022-07-30T06:05:21.027Z,6.20
2022-07-30T06:08:06.409Z,5.78
2022-07-30T06:10:51.857Z,6.68
2022-07-30T06:13:38.122Z,7.07
2022-07-30T06:16:23.515Z,5.93
2022-07-30T06:19:08.727Z,6.25
2022-07-30T06:22:06.777Z,5.78
2022-07-30T06:24:52.568Z,6.07
2022-07-30T06:27:39.904Z,5.70
2022-07-30T06:30:31.139Z,5.20
2022-07-30T06:33:17.233Z,5.50
2022-07-30T06:36:02.559Z,5.70
2022-07-30T06:38:48.118Z,6.55
2022-07-30T06:41:33.432Z,6.05
2022-07-30T06:44:18.705Z,5.35
2022-07-30T06:47:07.859Z,5.88
2022-07-30T06:49:54.041Z,6.40
2022-07-30T06:52:39.516Z,6.18
2022-07-30T06:55:25.604Z,6.47
2022-07-30T06:58:11.364Z,5.78
2022-07-30T07:00:56.749Z,5.65
2022-07-30T07:03:42.005Z,6.10
2022-07-30T07:06:27.342Z,4.85
2022-07-30T07:09:13.014Z,6.03
2022-07-30T07:11:58.142Z,5.28
2022-07-30T07:14:44.365Z,4.95
2022-07-30T07:17:29.877Z,5.22
2022-07-30T07:20:15.339Z,5.53
2022-07-30T07:23:04.174Z,5.50
2022-07-30T07:25:53.529Z,5.18
2022-07-30T07:28:40.145Z,4.75
2022-07-30T07:32:05.419Z,4.97
2022-07-30T07:34:31.034Z,4.85
2022-07-30T07:37:17.058Z,4.60
2022-07-30T07:40:02.557Z,5.22
2022-07-30T07:42:48.253Z,4.95
2022-07-30T07:45:34.241Z,5.40
2022-07-30T07:48:19.920Z,5.03
2022-07-30T07:51:09.680Z,4.97
2022-07-30T07:54:18.673Z,4.57
2022-07-30T07:57:07.769Z,4.50
2022-07-30T07:59:55.776Z,4.22
2022-07-30T08:02:41.893Z,3.60
2022-07-30T08:06:00.888Z,4.20
2022-07-30T08:08:33.660Z,4.00
2022-07-30T08:11:19.182Z,3.78
2022-07-30T08:14:04.762Z,4.47
2022-07-30T08:16:50.281Z,3.88
2022-07-30T08:19:35.660Z,4.15
2022-07-30T08:22:21.093Z,4.10
2022-07-30T08:25:06.712Z,4.07
2022-07-30T08:27:52.573Z,4.15
2022-07-30T08:30:38.800Z,3.30
2022-07-30T08:33:24.343Z,4.10
2022-07-30T08:36:12.886Z,4.07
2022-07-30T08:38:58.312Z,4.10
2022-07-30T08:41:43.763Z,3.70
2022-07-30T08:44:29.961Z,3.78
2022-07-30T08:47:18.997Z,3.42
2022-07-30T08:50:05.241Z,2.92
2022-07-30T08:52:51.070Z,2.97
2022-07-30T08:55:36.719Z,3.33
2022-07-30T08:58:35.003Z,3.40
2022-07-30T09:01:20.935Z,3.25
2022-07-30T09:06:57.736Z,3.50
2022-07-30T09:09:43.444Z,3.95
2022-07-30T09:12:31.742Z,2.88
2022-07-30T09:15:20.237Z,3.40
2022-07-30T09:18:05.607Z,2.85
2022-07-30T09:20:51.191Z,3.33
2022-07-30T09:23:36.697Z,2.97
2022-07-30T09:26:22.083Z,3.15
2022-07-30T09:29:18.622Z,3.05
2022-07-30T09:32:06.590Z,2.88
2022-07-30T09:34:52.212Z,2.95
2022-07-30T09:37:37.496Z,2.97
2022-07-30T09:40:22.984Z,2.65
2022-07-30T09:43:17.540Z,3.03
2022-07-30T09:46:03.563Z,3.00
2022-07-30T09:48:49.568Z,2.90
2022-07-30T09:51:54.559Z,2.95
2022-07-30T09:54:51.053Z,3.13
2022-07-30T09:57:57.800Z,2.88
2022-07-30T10:00:44.944Z,2.50
2022-07-30T10:03:34.234Z,2.90
2022-07-30T10:06:38.023Z,2.80
2022-07-30T10:09:30.361Z,2.88
2022-07-30T10:12:16.345Z,3.00
2022-07-30T10:15:02.535Z,2.72
2022-07-30T10:17:51.620Z,2.60
2022-07-30T10:20:37.480Z,2.10
2022-07-30T10:23:27.075Z,3.00
2022-07-30T10:26:13.043Z,2.22
2022-07-30T10:29:05.235Z,2.13
2022-07-30T10:31:54.079Z,2.70
2022-07-30T10:34:42.640Z,2.75
2022-07-30T10:37:30.855Z,2.08
2022-07-30T10:40:33.835Z,3.03
2022-07-30T10:44:01.039Z,2.25
2022-07-30T10:47:09.430Z,2.60
2022-07-30T10:50:12.383Z,2.53
2022-07-30T10:53:01.225Z,2.28
2022-07-30T10:56:06.458Z,2.75
2022-07-30T10:59:09.140Z,2.33
2022-07-30T11:02:00.474Z,2.35
2022-07-30T11:04:48.908Z,2.05
2022-07-30T11:07:35.272Z,2.20
2022-07-30T11:10:37.787Z,2.40
2022-07-30T11:13:53.450Z,2.70
2022-07-30T11:16:39.300Z,2.55
2022-07-30T11:19:56.467Z,2.65
2022-07-30T11:22:38.943Z,2.63
2022-07-30T11:25:38.942Z,2.78
2022-07-30T11:28:41.835Z,3.25
2022-07-30T11:31:37.039Z,2.72
2022-07-30T11:34:41.545Z,2.47
2022-07-30T11:37:31.911Z,3.03
2022-07-30T11:40:25.987Z,2.58
2022-07-30T11:43:35.793Z,2.40
2022-07-30T11:46:29.865Z,2.22
2022-07-30T11:49:15.769Z,2.00
2022-07-30T11:52:01.575Z,2.40
2022-07-30T11:54:54.403Z,2.28
2022-07-30T11:57:43.243Z,2.60
2022-07-30T12:00:37.635Z,2.45
2022-07-30T12:03:26.361Z,2.30
2022-07-30T12:06:19.965Z,2.78
2022-07-30T12:09:05.251Z,2.58
2022-07-30T12:11:51.231Z,2.42
2022-07-30T12:14:39.549Z,2.60
2022-07-30T12:17:41.389Z,2.30
2022-07-30T12:20:27.753Z,1.88
2022-07-30T12:23:14.563Z,1.50
2022-07-30T12:25:59.611Z,1.38
2022-07-30T12:28:46.199Z,1.38
2022-07-30T12:31:33.570Z,1.50
2022-07-30T12:34:25.452Z,1.52
2022-07-30T12:37:11.198Z,1.40
2022-07-30T12:40:15.347Z,1.85
2022-07-30T12:43:00.542Z,1.48
2022-07-30T12:45:52.117Z,1.50
2022-07-30T12:48:52.614Z,1.75
2022-07-30T12:51:51.214Z,1.70
2022-07-30T12:54:37.160Z,1.90
2022-07-30T12:57:22.686Z,2.30
2022-07-30T13:00:08.750Z,2.25
2022-07-30T13:02:55.024Z,2.35
2022-07-30T13:05:48.548Z,4.55
2022-07-30T13:09:03.030Z,3.10
2022-07-30T13:11:49.711Z,2.55
2022-07-30T13:14:35.100Z,2.17
2022-07-30T13:17:20.522Z,2.13
2022-07-30T13:20:06.584Z,2.00
2022-07-30T13:22:51.842Z,1.98
2022-07-30T13:25:40.470Z,2.13
2022-07-30T13:28:25.993Z,1.65
2022-07-30T13:31:11.013Z,1.80
2022-07-30T13:33:56.503Z,2.05
2022-07-30T13:36:42.972Z,1.98
2022-07-30T13:39:28.295Z,2.30
2022-07-30T13:42:13.748Z,2.72
2022-07-30T13:44:59.219Z,2.92
2022-07-30T13:47:44.582Z,2.70
2022-07-30T13:50:30.194Z,2.25
2022-07-30T13:53:15.407Z,2.50
2022-07-30T13:56:01.749Z,2.20
2022-07-30T13:58:47.692Z,2.50
2022-07-30T14:01:32.805Z,2.38
2022-07-30T14:04:18.183Z,2.80
2022-07-30T14:07:03.705Z,2.38
2022-07-30T14:09:54.277Z,2.38
2022-07-30T14:12:41.065Z,2.40
2022-07-30T14:15:30.862Z,2.28
2022-07-30T14:18:15.962Z,2.40
2022-07-30T14:21:01.546Z,2.50
2022-07-30T14:23:47.652Z,2.35
2022-07-30T14:26:33.872Z,2.58
2022-07-30T14:29:21.866Z,2.58
2022-07-30T14:32:07.208Z,2.67
2022-07-30T14:34:52.687Z,3.53
2022-07-30T14:37:39.365Z,2.72
2022-07-30T14:40:25.648Z,2.40
2022-07-30T14:43:11.143Z,2.60
2022-07-30T14:45:56.494Z,2.60
2022-07-30T14:48:41.959Z,2.85
2022-07-30T14:51:32.311Z,3.22
2022-07-30T14:54:20.024Z,2.83
2022-07-30T14:57:08.528Z,2.55
2022-07-30T14:59:53.864Z,2.78
2022-07-30T15:02:40.752Z,2.78
2022-07-30T15:05:25.829Z,3.00
2022-07-30T15:08:11.230Z,2.65
2022-07-30T15:10:59.895Z,2.60
2022-07-30T15:13:50.455Z,2.78
2022-07-30T15:16:36.240Z,2.90
2022-07-30T15:19:21.622Z,2.50
2022-07-30T15:22:07.334Z,2.50
2022-07-30T15:24:52.880Z,2.33
2022-07-30T15:27:38.392Z,3.10
2022-07-30T15:30:24.710Z,2.35
2022-07-30T15:33:10.620Z,2.58
2022-07-30T15:35:55.946Z,2.67
2022-07-30T15:38:41.912Z,2.70
2022-07-30T15:41:27.405Z,3.63
2022-07-30T15:44:13.830Z,3.05
2022-07-30T15:47:00.085Z,3.30
2022-07-30T15:49:45.618Z,3.55
2022-07-30T15:52:31.196Z,3.30
2022-07-30T15:55:16.842Z,3.80
2022-07-30T15:58:02.227Z,3.13
2022-07-30T16:00:47.632Z,3.38
2022-07-30T16:03:33.295Z,3.10
2022-07-30T16:06:18.390Z,3.22
2022-07-30T16:09:04.946Z,3.10
2022-07-30T16:11:50.424Z,2.60
2022-07-30T16:14:35.826Z,2.70
2022-07-30T16:17:21.371Z,2.95
2022-07-30T16:20:09.595Z,3.05
2022-07-30T16:22:54.906Z,3.17
2022-07-30T16:25:40.176Z,3.00
2022-07-30T16:28:25.536Z,3.25
2022-07-30T16:31:10.901Z,3.20
2022-07-30T16:33:56.420Z,2.90
2022-07-30T16:36:41.675Z,2.90
2022-07-30T16:39:27.407Z,3.00
2022-07-30T16:42:12.381Z,3.03
2022-07-30T16:44:57.810Z,2.55
2022-07-30T16:47:43.044Z,2.67
2022-07-30T16:50:28.576Z,2.80
2022-07-30T16:53:14.735Z,3.40
2022-07-30T16:56:00.371Z,2.83
2022-07-30T16:58:45.822Z,2.95
2022-07-30T17:01:32.171Z,3.35
2022-07-30T17:04:17.822Z,7.90
2022-07-30T17:07:03.061Z,3.92
2022-07-30T17:09:52.015Z,3.03
2022-07-30T17:12:40.726Z,3.00
2022-07-30T17:15:32.458Z,3.40
2022-07-30T17:18:18.689Z,3.38
2022-07-30T17:21:04.198Z,2.80
2022-07-30T17:23:49.401Z,2.67
2022-07-30T17:26:35.974Z,3.00
2022-07-30T17:29:21.071Z,3.92
2022-07-30T17:32:08.149Z,4.78
2022-07-30T17:34:54.747Z,6.10
2022-07-30T17:37:39.909Z,5.18
2022-07-30T17:40:30.217Z,6.00
2022-07-30T17:43:16.654Z,6.43
2022-07-30T17:46:01.984Z,5.22
2022-07-30T17:48:47.471Z,5.57
2022-07-30T17:51:35.742Z,4.70
2022-07-30T17:54:21.186Z,5.78
2022-07-30T17:57:06.486Z,5.82
2022-07-30T17:59:52.174Z,5.43
2022-07-30T18:02:37.231Z,5.07
2022-07-30T18:05:22.482Z,4.45
2022-07-30T18:08:07.776Z,3.95
2022-07-30T18:10:53.166Z,3.30
2022-07-30T18:13:38.511Z,3.38
2022-07-30T18:16:24.892Z,6.03
2022-07-30T18:19:26.817Z,7.55
2022-07-30T18:22:14.751Z,7.30
2022-07-30T18:25:00.627Z,5.68
2022-07-30T18:27:46.332Z,3.53
2022-07-30T18:30:31.642Z,3.00
2022-07-30T18:33:19.676Z,2.92
2022-07-30T18:36:05.198Z,2.75
2022-07-30T18:38:51.243Z,2.88
2022-07-30T18:41:36.752Z,2.70
2022-07-30T18:44:22.142Z,2.63
2022-07-30T18:47:07.503Z,2.38
2022-07-30T18:49:55.242Z,2.30
2022-07-30T18:52:41.594Z,2.25
2022-07-30T18:55:27.319Z,2.80
2022-07-30T18:58:12.677Z,2.40
2022-07-30T19:00:58.223Z,2.67
2022-07-30T19:03:44.109Z,2.70
2022-07-30T19:06:31.329Z,3.25
2022-07-30T19:09:17.901Z,2.65
2022-07-30T19:12:04.514Z,3.53
2022-07-30T19:14:50.268Z,3.22
2022-07-30T19:17:45.298Z,2.83
2022-07-30T19:20:31.909Z,2.65
2022-07-30T19:23:18.505Z,2.42
2022-07-30T19:26:05.631Z,2.97
2022-07-30T19:28:51.012Z,3.20
2022-07-30T19:31:36.542Z,2.70
2022-07-30T19:34:21.562Z,2.50
2022-07-30T19:37:07.063Z,3.08
2022-07-30T19:39:58.903Z,2.80
2022-07-30T19:42:52.604Z,3.15
2022-07-30T19:45:47.318Z,2.83
2022-07-30T19:48:36.048Z,3.10
2022-07-30T19:51:25.172Z,2.90
2022-07-30T19:54:26.685Z,3.50
2022-07-30T19:57:12.260Z,3.40
2022-07-30T20:00:04.013Z,3.63
2022-07-30T20:03:02.992Z,3.40
2022-07-30T20:05:57.238Z,3.15
2022-07-30T20:08:44.920Z,3.78
2022-07-30T20:11:36.192Z,3.90
2022-07-30T20:14:23.044Z,3.92
2022-07-30T20:17:08.747Z,3.42
2022-07-30T20:19:55.701Z,3.67
2022-07-30T20:22:45.034Z,3.70
2022-07-30T20:25:37.228Z,3.78
2022-07-30T20:28:23.812Z,3.95
2022-07-30T20:31:11.357Z,3.47
2022-07-30T20:33:58.762Z,4.18
2022-07-30T20:36:44.759Z,4.07
2022-07-30T20:39:32.304Z,4.22
2022-07-30T20:42:18.626Z,4.75
2022-07-30T20:45:07.740Z,4.18
2022-07-30T20:47:56.816Z,4.00
2022-07-30T20:50:44.845Z,4.60
2022-07-30T20:53:33.421Z,4.28
2022-07-30T20:56:22.692Z,4.78
2022-07-30T20:59:09.494Z,4.85
2022-07-30T21:01:59.964Z,4.20
2022-07-30T21:04:46.482Z,4.40
2022-07-30T21:07:36.703Z,3.95
2022-07-30T21:10:37.343Z,4.93
2022-07-30T21:13:23.111Z,4.60
2022-07-30T21:16:15.784Z,4.47
2022-07-30T21:19:03.487Z,4.57
2022-07-30T21:21:50.254Z,4.45
2022-07-30T21:24:36.588Z,4.47
2022-07-30T21:27:22.918Z,4.72
2022-07-30T21:30:15.269Z,4.70
2022-07-30T21:33:00.856Z,4.53
2022-07-30T21:35:46.347Z,4.85
2022-07-30T21:38:34.381Z,4.80
2022-07-30T21:41:21.510Z,4.97
2022-07-30T21:44:26.510Z,4.93
2022-07-30T21:47:12.016Z,4.63
2022-07-30T21:49:57.596Z,4.80
2022-07-30T21:52:44.872Z,5.30
2022-07-30T21:55:33.278Z,4.53
2022-07-30T21:58:25.794Z,4.45
2022-07-30T22:01:16.629Z,4.93
2022-07-30T22:04:07.913Z,4.93
2022-07-30T22:06:54.654Z,4.93
2022-07-30T22:09:39.942Z,5.00
2022-07-30T22:12:29.060Z,5.03
2022-07-30T22:15:16.399Z,4.90
2022-07-30T22:18:02.289Z,5.90
2022-07-30T22:20:47.935Z,4.97
2022-07-30T22:23:33.487Z,4.93
2022-07-30T22:26:18.842Z,4.72
2022-07-30T22:29:04.221Z,5.03
2022-07-30T22:31:50.264Z,5.47
2022-07-30T22:34:35.599Z,5.72
2022-07-30T22:37:21.804Z,5.75
2022-07-30T22:40:08.290Z,5.95
2022-07-30T22:42:54.298Z,5.85
2022-07-30T22:45:48.387Z,5.97
2022-07-30T22:48:34.715Z,6.07
2022-07-30T22:51:20.872Z,5.28
2022-07-30T22:54:12.579Z,6.03
2022-07-30T22:57:03.906Z,5.60
2022-07-30T22:59:58.339Z,5.40
2022-07-30T23:02:47.455Z,5.97
2022-07-30T23:05:35.173Z,6.13
2022-07-30T23:08:29.669Z,6.78
2022-07-30T23:11:16.170Z,6.07
2022-07-30T23:14:01.395Z,6.00
2022-07-30T23:16:50.417Z,5.45
2022-07-30T23:19:35.601Z,5.40
2022-07-30T23:22:20.853Z,5.80
2022-07-30T23:25:08.564Z,6.18
2022-07-30T23:27:54.007Z,5.20
2022-07-30T23:30:39.416Z,5.60
2022-07-30T23:33:24.742Z,5.43
2022-07-30T23:36:11.037Z,5.47
2022-07-30T23:38:56.218Z,4.90
2022-07-30T23:41:43.670Z,4.90
2022-07-30T23:44:29.062Z,5.07
2022-07-30T23:47:14.453Z,5.32
2022-07-30T23:49:59.933Z,6.20
2022-07-30T23:52:45.622Z,5.03
2022-07-30T23:55:31.744Z,6.03
2022-07-30T23:58:18.141Z,7.05
